sensor_id;sensor_type;location;lat;lon;timestamp;P1;durP1;ratioP1;P2;durP2;ratioP2
3726;SDS011;1879;45.876;12.300;2023-05-07T00:00:54;8.93;;;8.10;;
3726;SDS011;1879;45.876;12.300;2023-05-07T00:03:22;9.30;;;8.50;;
3726;SDS011;1879;45.876;12.300;2023-05-07T00:05:49;8.47;;;7.57;;
3726;SDS011;1879;45.876;12.300;2023-05-07T00:08:18;9.40;;;8.50;;
3726;SDS011;1879;45.876;12.300;2023-05-07T00:10:45;9.60;;;8.70;;
3726;SDS011;1879;45.876;12.300;2023-05-07T00:13:12;10.57;;;9.10;;
3726;SDS011;1879;45.876;12.300;2023-05-07T00:15:39;9.50;;;8.70;;
3726;SDS011;1879;45.876;12.300;2023-05-07T00:18:06;9.97;;;8.97;;
3726;SDS011;1879;45.876;12.300;2023-05-07T00:20:34;9.87;;;8.50;;
3726;SDS011;1879;45.876;12.300;2023-05-07T00:23:01;9.57;;;8.57;;
3726;SDS011;1879;45.876;12.300;2023-05-07T00:25:28;9.87;;;8.87;;
3726;SDS011;1879;45.876;12.300;2023-05-07T00:27:55;9.43;;;8.47;;
3726;SDS011;1879;45.876;12.300;2023-05-07T00:30:27;9.10;;;8.10;;
3726;SDS011;1879;45.876;12.300;2023-05-07T00:32:54;10.00;;;8.80;;
3726;SDS011;1879;45.876;12.300;2023-05-07T00:35:21;10.03;;;9.13;;
3726;SDS011;1879;45.876;12.300;2023-05-07T00:37:50;10.40;;;8.73;;
3726;SDS011;1879;45.876;12.300;2023-05-07T00:40:17;9.87;;;7.33;;
3726;SDS011;1879;45.876;12.300;2023-05-07T00:42:44;8.53;;;7.73;;
3726;SDS011;1879;45.876;12.300;2023-05-07T00:45:12;9.63;;;8.70;;
3726;SDS011;1879;45.876;12.300;2023-05-07T00:47:39;9.97;;;8.90;;
3726;SDS011;1879;45.876;12.300;2023-05-07T00:50:07;8.83;;;7.90;;
3726;SDS011;1879;45.876;12.300;2023-05-07T00:52:36;9.40;;;8.70;;
3726;SDS011;1879;45.876;12.300;2023-05-07T00:55:06;10.70;;;9.60;;
3726;SDS011;1879;45.876;12.300;2023-05-07T00:57:34;10.10;;;9.10;;
3726;SDS011;1879;45.876;12.300;2023-05-07T01:00:03;10.33;;;9.40;;
3726;SDS011;1879;45.876;12.300;2023-05-07T01:02:31;11.13;;;9.97;;
3726;SDS011;1879;45.876;12.300;2023-05-07T01:04:58;9.63;;;8.70;;
3726;SDS011;1879;45.876;12.300;2023-05-07T01:07:26;9.33;;;8.53;;
3726;SDS011;1879;45.876;12.300;2023-05-07T01:09:54;9.80;;;8.90;;
3726;SDS011;1879;45.876;12.300;2023-05-07T01:12:23;9.53;;;8.57;;
3726;SDS011;1879;45.876;12.300;2023-05-07T01:14:51;9.07;;;8.20;;
3726;SDS011;1879;45.876;12.300;2023-05-07T01:17:18;9.63;;;8.83;;
3726;SDS011;1879;45.876;12.300;2023-05-07T01:19:45;9.67;;;8.83;;
3726;SDS011;1879;45.876;12.300;2023-05-07T01:22:16;10.53;;;9.30;;
3726;SDS011;1879;45.876;12.300;2023-05-07T01:24:57;9.80;;;8.90;;
3726;SDS011;1879;45.876;12.300;2023-05-07T01:27:26;8.90;;;8.20;;
3726;SDS011;1879;45.876;12.300;2023-05-07T01:29:53;9.27;;;8.47;;
3726;SDS011;1879;45.876;12.300;2023-05-07T01:32:23;9.70;;;8.80;;
3726;SDS011;1879;45.876;12.300;2023-05-07T01:34:55;8.63;;;7.93;;
3726;SDS011;1879;45.876;12.300;2023-05-07T01:37:23;9.07;;;8.23;;
3726;SDS011;1879;45.876;12.300;2023-05-07T01:39:53;9.90;;;9.00;;
3726;SDS011;1879;45.876;12.300;2023-05-07T01:42:20;9.53;;;8.70;;
3726;SDS011;1879;45.876;12.300;2023-05-07T01:44:48;9.10;;;8.30;;
3726;SDS011;1879;45.876;12.300;2023-05-07T01:47:15;8.70;;;7.93;;
3726;SDS011;1879;45.876;12.300;2023-05-07T01:49:43;9.03;;;8.23;;
3726;SDS011;1879;45.876;12.300;2023-05-07T01:52:10;9.30;;;8.50;;
3726;SDS011;1879;45.876;12.300;2023-05-07T01:54:37;9.57;;;8.63;;
3726;SDS011;1879;45.876;12.300;2023-05-07T01:57:05;10.53;;;9.63;;
3726;SDS011;1879;45.876;12.300;2023-05-07T01:59:32;9.90;;;9.00;;
3726;SDS011;1879;45.876;12.300;2023-05-07T02:01:59;9.10;;;8.23;;
3726;SDS011;1879;45.876;12.300;2023-05-07T02:04:26;14.27;;;8.70;;
3726;SDS011;1879;45.876;12.300;2023-05-07T02:06:53;11.83;;;9.50;;
3726;SDS011;1879;45.876;12.300;2023-05-07T02:09:20;10.37;;;9.47;;
3726;SDS011;1879;45.876;12.300;2023-05-07T02:11:48;9.60;;;8.63;;
3726;SDS011;1879;45.876;12.300;2023-05-07T02:14:16;9.23;;;8.37;;
3726;SDS011;1879;45.876;12.300;2023-05-07T02:16:45;9.00;;;8.10;;
3726;SDS011;1879;45.876;12.300;2023-05-07T02:19:12;9.17;;;8.27;;
3726;SDS011;1879;45.876;12.300;2023-05-07T02:21:39;8.40;;;7.60;;
3726;SDS011;1879;45.876;12.300;2023-05-07T02:24:06;8.43;;;7.73;;
3726;SDS011;1879;45.876;12.300;2023-05-07T02:26:33;8.47;;;7.60;;
3726;SDS011;1879;45.876;12.300;2023-05-07T02:29:00;8.20;;;7.40;;
3726;SDS011;1879;45.876;12.300;2023-05-07T02:31:28;8.57;;;7.77;;
3726;SDS011;1879;45.876;12.300;2023-05-07T02:33:55;8.00;;;7.30;;
3726;SDS011;1879;45.876;12.300;2023-05-07T02:36:22;8.67;;;7.63;;
3726;SDS011;1879;45.876;12.300;2023-05-07T02:38:49;8.23;;;7.43;;
3726;SDS011;1879;45.876;12.300;2023-05-07T02:41:16;7.43;;;6.70;;
3726;SDS011;1879;45.876;12.300;2023-05-07T02:43:43;7.20;;;6.60;;
3726;SDS011;1879;45.876;12.300;2023-05-07T02:46:10;9.33;;;7.20;;
3726;SDS011;1879;45.876;12.300;2023-05-07T02:48:38;7.00;;;6.40;;
3726;SDS011;1879;45.876;12.300;2023-05-07T02:51:05;8.20;;;7.40;;
3726;SDS011;1879;45.876;12.300;2023-05-07T02:53:32;7.97;;;7.13;;
3726;SDS011;1879;45.876;12.300;2023-05-07T02:56:00;8.53;;;7.73;;
3726;SDS011;1879;45.876;12.300;2023-05-07T02:58:27;9.07;;;8.20;;
3726;SDS011;1879;45.876;12.300;2023-05-07T03:00:54;9.37;;;8.47;;
3726;SDS011;1879;45.876;12.300;2023-05-07T03:03:21;11.10;;;8.80;;
3726;SDS011;1879;45.876;12.300;2023-05-07T03:05:50;8.33;;;7.53;;
3726;SDS011;1879;45.876;12.300;2023-05-07T03:08:17;9.07;;;8.27;;
3726;SDS011;1879;45.876;12.300;2023-05-07T03:10:44;8.93;;;8.23;;
3726;SDS011;1879;45.876;12.300;2023-05-07T03:13:11;8.43;;;7.63;;
3726;SDS011;1879;45.876;12.300;2023-05-07T03:15:37;7.37;;;6.67;;
3726;SDS011;1879;45.876;12.300;2023-05-07T03:18:05;8.60;;;7.80;;
3726;SDS011;1879;45.876;12.300;2023-05-07T03:20:32;6.93;;;6.33;;
3726;SDS011;1879;45.876;12.300;2023-05-07T03:23:00;6.20;;;5.60;;
3726;SDS011;1879;45.876;12.300;2023-05-07T03:25:27;6.00;;;5.50;;
3726;SDS011;1879;45.876;12.300;2023-05-07T03:27:55;6.00;;;5.50;;
3726;SDS011;1879;45.876;12.300;2023-05-07T03:30:22;5.83;;;5.33;;
3726;SDS011;1879;45.876;12.300;2023-05-07T03:32:49;7.07;;;6.40;;
3726;SDS011;1879;45.876;12.300;2023-05-07T03:35:16;6.63;;;5.90;;
3726;SDS011;1879;45.876;12.300;2023-05-07T03:37:43;6.20;;;5.70;;
3726;SDS011;1879;45.876;12.300;2023-05-07T03:40:12;7.60;;;6.90;;
3726;SDS011;1879;45.876;12.300;2023-05-07T03:42:38;7.00;;;6.37;;
3726;SDS011;1879;45.876;12.300;2023-05-07T03:45:06;7.43;;;6.73;;
3726;SDS011;1879;45.876;12.300;2023-05-07T03:47:34;7.17;;;6.47;;
3726;SDS011;1879;45.876;12.300;2023-05-07T03:50:01;7.30;;;6.60;;
3726;SDS011;1879;45.876;12.300;2023-05-07T03:52:30;7.10;;;6.50;;
3726;SDS011;1879;45.876;12.300;2023-05-07T03:54:57;7.00;;;6.30;;
3726;SDS011;1879;45.876;12.300;2023-05-07T03:57:25;6.53;;;5.93;;
3726;SDS011;1879;45.876;12.300;2023-05-07T03:59:52;7.03;;;6.33;;
3726;SDS011;1879;45.876;12.300;2023-05-07T04:02:19;6.80;;;6.13;;
3726;SDS011;1879;45.876;12.300;2023-05-07T04:04:47;7.10;;;6.50;;
3726;SDS011;1879;45.876;12.300;2023-05-07T04:07:15;7.40;;;6.57;;
3726;SDS011;1879;45.876;12.300;2023-05-07T04:09:42;6.73;;;6.13;;
3726;SDS011;1879;45.876;12.300;2023-05-07T04:12:09;6.80;;;6.20;;
3726;SDS011;1879;45.876;12.300;2023-05-07T04:14:37;7.33;;;6.60;;
3726;SDS011;1879;45.876;12.300;2023-05-07T04:17:04;6.70;;;5.97;;
3726;SDS011;1879;45.876;12.300;2023-05-07T04:19:32;7.10;;;6.50;;
3726;SDS011;1879;45.876;12.300;2023-05-07T04:21:59;6.23;;;5.73;;
3726;SDS011;1879;45.876;12.300;2023-05-07T04:24:26;6.37;;;5.87;;
3726;SDS011;1879;45.876;12.300;2023-05-07T04:26:53;6.60;;;6.10;;
3726;SDS011;1879;45.876;12.300;2023-05-07T04:29:20;5.93;;;5.43;;
3726;SDS011;1879;45.876;12.300;2023-05-07T04:31:49;7.50;;;6.87;;
3726;SDS011;1879;45.876;12.300;2023-05-07T04:34:16;6.63;;;6.03;;
3726;SDS011;1879;45.876;12.300;2023-05-07T04:36:42;6.50;;;6.00;;
3726;SDS011;1879;45.876;12.300;2023-05-07T04:39:09;6.60;;;6.00;;
3726;SDS011;1879;45.876;12.300;2023-05-07T04:41:37;6.30;;;5.70;;
3726;SDS011;1879;45.876;12.300;2023-05-07T04:44:04;8.70;;;6.07;;
3726;SDS011;1879;45.876;12.300;2023-05-07T04:46:31;6.93;;;6.30;;
3726;SDS011;1879;45.876;12.300;2023-05-07T04:49:00;9.97;;;6.17;;
3726;SDS011;1879;45.876;12.300;2023-05-07T04:51:27;6.70;;;6.10;;
3726;SDS011;1879;45.876;12.300;2023-05-07T04:53:54;6.50;;;6.00;;
3726;SDS011;1879;45.876;12.300;2023-05-07T04:56:21;6.77;;;6.13;;
3726;SDS011;1879;45.876;12.300;2023-05-07T04:58:48;7.30;;;6.40;;
3726;SDS011;1879;45.876;12.300;2023-05-07T05:01:15;6.67;;;6.07;;
3726;SDS011;1879;45.876;12.300;2023-05-07T05:03:42;6.37;;;5.77;;
3726;SDS011;1879;45.876;12.300;2023-05-07T05:06:10;6.10;;;5.40;;
3726;SDS011;1879;45.876;12.300;2023-05-07T05:08:37;5.90;;;5.40;;
3726;SDS011;1879;45.876;12.300;2023-05-07T05:11:04;6.20;;;5.53;;
3726;SDS011;1879;45.876;12.300;2023-05-07T05:13:31;5.63;;;5.13;;
3726;SDS011;1879;45.876;12.300;2023-05-07T05:15:58;9.00;;;6.17;;
3726;SDS011;1879;45.876;12.300;2023-05-07T05:18:25;5.93;;;5.43;;
3726;SDS011;1879;45.876;12.300;2023-05-07T05:20:52;6.03;;;5.50;;
3726;SDS011;1879;45.876;12.300;2023-05-07T05:23:20;7.97;;;5.57;;
3726;SDS011;1879;45.876;12.300;2023-05-07T05:25:47;4.83;;;4.43;;
3726;SDS011;1879;45.876;12.300;2023-05-07T05:28:14;4.93;;;4.50;;
3726;SDS011;1879;45.876;12.300;2023-05-07T05:30:41;5.20;;;4.70;;
3726;SDS011;1879;45.876;12.300;2023-05-07T05:33:08;4.90;;;4.50;;
3726;SDS011;1879;45.876;12.300;2023-05-07T05:35:35;4.70;;;4.30;;
3726;SDS011;1879;45.876;12.300;2023-05-07T05:38:02;4.90;;;4.50;;
3726;SDS011;1879;45.876;12.300;2023-05-07T05:40:30;6.37;;;5.10;;
3726;SDS011;1879;45.876;12.300;2023-05-07T05:42:58;5.83;;;5.33;;
3726;SDS011;1879;45.876;12.300;2023-05-07T05:45:25;5.33;;;4.93;;
3726;SDS011;1879;45.876;12.300;2023-05-07T05:47:52;7.13;;;5.40;;
3726;SDS011;1879;45.876;12.300;2023-05-07T05:50:19;5.70;;;5.10;;
3726;SDS011;1879;45.876;12.300;2023-05-07T05:52:46;5.50;;;5.00;;
3726;SDS011;1879;45.876;12.300;2023-05-07T05:55:13;6.03;;;5.53;;
3726;SDS011;1879;45.876;12.300;2023-05-07T05:57:41;4.90;;;4.50;;
3726;SDS011;1879;45.876;12.300;2023-05-07T06:00:09;5.80;;;5.30;;
3726;SDS011;1879;45.876;12.300;2023-05-07T06:02:36;5.57;;;5.10;;
3726;SDS011;1879;45.876;12.300;2023-05-07T06:05:04;7.20;;;5.50;;
3726;SDS011;1879;45.876;12.300;2023-05-07T06:07:31;6.57;;;5.97;;
3726;SDS011;1879;45.876;12.300;2023-05-07T06:09:59;6.10;;;5.60;;
3726;SDS011;1879;45.876;12.300;2023-05-07T06:12:26;5.70;;;4.97;;
3726;SDS011;1879;45.876;12.300;2023-05-07T06:14:54;5.83;;;5.33;;
3726;SDS011;1879;45.876;12.300;2023-05-07T06:17:21;5.10;;;4.67;;
3726;SDS011;1879;45.876;12.300;2023-05-07T06:19:48;5.73;;;5.33;;
3726;SDS011;1879;45.876;12.300;2023-05-07T06:22:15;5.30;;;4.90;;
3726;SDS011;1879;45.876;12.300;2023-05-07T06:24:42;5.40;;;5.00;;
3726;SDS011;1879;45.876;12.300;2023-05-07T06:27:09;4.90;;;4.50;;
3726;SDS011;1879;45.876;12.300;2023-05-07T06:29:36;8.10;;;5.80;;
3726;SDS011;1879;45.876;12.300;2023-05-07T06:32:08;6.07;;;5.50;;
3726;SDS011;1879;45.876;12.300;2023-05-07T06:34:35;5.67;;;5.10;;
3726;SDS011;1879;45.876;12.300;2023-05-07T06:37:02;5.50;;;5.00;;
3726;SDS011;1879;45.876;12.300;2023-05-07T06:39:29;5.60;;;4.97;;
3726;SDS011;1879;45.876;12.300;2023-05-07T06:41:56;7.67;;;5.20;;
3726;SDS011;1879;45.876;12.300;2023-05-07T06:44:23;4.97;;;4.57;;
3726;SDS011;1879;45.876;12.300;2023-05-07T06:46:50;4.40;;;4.00;;
3726;SDS011;1879;45.876;12.300;2023-05-07T06:49:19;5.27;;;4.47;;
3726;SDS011;1879;45.876;12.300;2023-05-07T06:51:46;5.60;;;5.20;;
3726;SDS011;1879;45.876;12.300;2023-05-07T06:54:13;5.70;;;5.23;;
3726;SDS011;1879;45.876;12.300;2023-05-07T06:56:40;6.33;;;5.73;;
3726;SDS011;1879;45.876;12.300;2023-05-07T06:59:07;5.30;;;4.90;;
3726;SDS011;1879;45.876;12.300;2023-05-07T07:01:34;5.77;;;5.27;;
3726;SDS011;1879;45.876;12.300;2023-05-07T07:04:01;5.73;;;5.27;;
3726;SDS011;1879;45.876;12.300;2023-05-07T07:06:29;5.53;;;5.00;;
3726;SDS011;1879;45.876;12.300;2023-05-07T07:08:57;6.03;;;5.43;;
3726;SDS011;1879;45.876;12.300;2023-05-07T07:11:24;6.03;;;4.70;;
3726;SDS011;1879;45.876;12.300;2023-05-07T07:13:51;4.83;;;4.43;;
3726;SDS011;1879;45.876;12.300;2023-05-07T07:16:19;7.03;;;4.90;;
3726;SDS011;1879;45.876;12.300;2023-05-07T07:18:46;6.30;;;4.73;;
3726;SDS011;1879;45.876;12.300;2023-05-07T07:21:13;5.53;;;5.03;;
3726;SDS011;1879;45.876;12.300;2023-05-07T07:23:41;4.80;;;4.40;;
3726;SDS011;1879;45.876;12.300;2023-05-07T07:26:08;5.40;;;4.93;;
3726;SDS011;1879;45.876;12.300;2023-05-07T07:28:41;5.20;;;4.70;;
3726;SDS011;1879;45.876;12.300;2023-05-07T07:31:08;4.70;;;4.40;;
3726;SDS011;1879;45.876;12.300;2023-05-07T07:33:35;5.10;;;4.70;;
3726;SDS011;1879;45.876;12.300;2023-05-07T07:36:03;5.10;;;4.70;;
3726;SDS011;1879;45.876;12.300;2023-05-07T07:38:31;5.00;;;4.60;;
3726;SDS011;1879;45.876;12.300;2023-05-07T07:40:59;4.77;;;4.37;;
3726;SDS011;1879;45.876;12.300;2023-05-07T07:43:26;5.20;;;4.70;;
3726;SDS011;1879;45.876;12.300;2023-05-07T07:45:53;4.63;;;4.30;;
3726;SDS011;1879;45.876;12.300;2023-05-07T07:48:20;5.47;;;5.07;;
3726;SDS011;1879;45.876;12.300;2023-05-07T07:50:48;5.53;;;5.03;;
3726;SDS011;1879;45.876;12.300;2023-05-07T07:53:16;5.53;;;5.10;;
3726;SDS011;1879;45.876;12.300;2023-05-07T07:55:43;4.87;;;4.50;;
3726;SDS011;1879;45.876;12.300;2023-05-07T07:58:11;5.90;;;5.40;;
3726;SDS011;1879;45.876;12.300;2023-05-07T08:00:38;5.10;;;4.60;;
3726;SDS011;1879;45.876;12.300;2023-05-07T08:03:05;4.90;;;4.30;;
3726;SDS011;1879;45.876;12.300;2023-05-07T08:05:35;5.67;;;4.60;;
3726;SDS011;1879;45.876;12.300;2023-05-07T08:08:03;5.37;;;4.97;;
3726;SDS011;1879;45.876;12.300;2023-05-07T08:10:31;6.23;;;5.27;;
3726;SDS011;1879;45.876;12.300;2023-05-07T08:12:59;7.73;;;4.30;;
3726;SDS011;1879;45.876;12.300;2023-05-07T08:15:29;4.70;;;4.30;;
3726;SDS011;1879;45.876;12.300;2023-05-07T08:17:57;5.23;;;4.80;;
3726;SDS011;1879;45.876;12.300;2023-05-07T08:20:25;7.90;;;5.43;;
3726;SDS011;1879;45.876;12.300;2023-05-07T08:22:52;5.77;;;5.27;;
3726;SDS011;1879;45.876;12.300;2023-05-07T08:25:19;5.43;;;5.03;;
3726;SDS011;1879;45.876;12.300;2023-05-07T08:27:46;5.63;;;5.13;;
3726;SDS011;1879;45.876;12.300;2023-05-07T08:30:15;5.50;;;5.00;;
3726;SDS011;1879;45.876;12.300;2023-05-07T08:32:44;5.80;;;5.30;;
3726;SDS011;1879;45.876;12.300;2023-05-07T08:35:11;5.57;;;4.97;;
3726;SDS011;1879;45.876;12.300;2023-05-07T08:37:38;5.27;;;4.87;;
3726;SDS011;1879;45.876;12.300;2023-05-07T08:40:05;5.00;;;4.60;;
3726;SDS011;1879;45.876;12.300;2023-05-07T08:42:35;5.00;;;4.60;;
3726;SDS011;1879;45.876;12.300;2023-05-07T08:45:03;5.60;;;5.10;;
3726;SDS011;1879;45.876;12.300;2023-05-07T08:47:36;5.97;;;5.47;;
3726;SDS011;1879;45.876;12.300;2023-05-07T08:50:09;6.07;;;5.57;;
3726;SDS011;1879;45.876;12.300;2023-05-07T08:52:37;4.67;;;4.27;;
3726;SDS011;1879;45.876;12.300;2023-05-07T08:55:05;4.40;;;4.00;;
3726;SDS011;1879;45.876;12.300;2023-05-07T08:57:33;4.80;;;4.40;;
3726;SDS011;1879;45.876;12.300;2023-05-07T09:00:01;4.13;;;3.70;;
3726;SDS011;1879;45.876;12.300;2023-05-07T09:02:28;5.60;;;5.10;;
3726;SDS011;1879;45.876;12.300;2023-05-07T09:04:55;5.00;;;4.60;;
3726;SDS011;1879;45.876;12.300;2023-05-07T09:07:24;4.93;;;4.53;;
3726;SDS011;1879;45.876;12.300;2023-05-07T09:09:51;5.00;;;4.50;;
3726;SDS011;1879;45.876;12.300;2023-05-07T09:12:18;4.87;;;4.37;;
3726;SDS011;1879;45.876;12.300;2023-05-07T09:14:45;5.20;;;4.80;;
3726;SDS011;1879;45.876;12.300;2023-05-07T09:17:12;5.17;;;4.67;;
3726;SDS011;1879;45.876;12.300;2023-05-07T09:19:39;4.87;;;4.33;;
3726;SDS011;1879;45.876;12.300;2023-05-07T09:22:06;4.90;;;4.20;;
3726;SDS011;1879;45.876;12.300;2023-05-07T09:24:35;4.00;;;3.70;;
3726;SDS011;1879;45.876;12.300;2023-05-07T09:27:03;3.33;;;3.03;;
3726;SDS011;1879;45.876;12.300;2023-05-07T09:29:31;4.83;;;4.43;;
3726;SDS011;1879;45.876;12.300;2023-05-07T09:32:00;5.00;;;4.60;;
3726;SDS011;1879;45.876;12.300;2023-05-07T09:34:28;4.47;;;4.07;;
3726;SDS011;1879;45.876;12.300;2023-05-07T09:36:55;5.17;;;4.77;;
3726;SDS011;1879;45.876;12.300;2023-05-07T09:39:23;6.07;;;5.30;;
3726;SDS011;1879;45.876;12.300;2023-05-07T09:41:51;5.27;;;4.70;;
3726;SDS011;1879;45.876;12.300;2023-05-07T09:44:20;5.23;;;4.73;;
3726;SDS011;1879;45.876;12.300;2023-05-07T09:46:51;5.77;;;4.57;;
3726;SDS011;1879;45.876;12.300;2023-05-07T09:49:21;6.30;;;3.80;;
3726;SDS011;1879;45.876;12.300;2023-05-07T09:51:50;5.60;;;5.00;;
3726;SDS011;1879;45.876;12.300;2023-05-07T09:54:18;6.90;;;5.40;;
3726;SDS011;1879;45.876;12.300;2023-05-07T09:56:45;4.90;;;4.50;;
3726;SDS011;1879;45.876;12.300;2023-05-07T09:59:16;5.37;;;4.90;;
3726;SDS011;1879;45.876;12.300;2023-05-07T10:01:43;5.57;;;4.97;;
3726;SDS011;1879;45.876;12.300;2023-05-07T10:04:11;5.27;;;4.77;;
3726;SDS011;1879;45.876;12.300;2023-05-07T10:06:38;6.00;;;5.00;;
3726;SDS011;1879;45.876;12.300;2023-05-07T10:09:06;4.90;;;4.40;;
3726;SDS011;1879;45.876;12.300;2023-05-07T10:11:35;6.10;;;4.67;;
3726;SDS011;1879;45.876;12.300;2023-05-07T10:14:02;4.90;;;4.40;;
3726;SDS011;1879;45.876;12.300;2023-05-07T10:16:32;6.60;;;4.80;;
3726;SDS011;1879;45.876;12.300;2023-05-07T10:19:02;7.20;;;5.40;;
3726;SDS011;1879;45.876;12.300;2023-05-07T10:21:29;5.47;;;4.97;;
3726;SDS011;1879;45.876;12.300;2023-05-07T10:23:59;6.83;;;5.50;;
3726;SDS011;1879;45.876;12.300;2023-05-07T10:26:28;10.20;;;5.43;;
3726;SDS011;1879;45.876;12.300;2023-05-07T10:28:58;6.80;;;5.23;;
3726;SDS011;1879;45.876;12.300;2023-05-07T10:31:42;5.97;;;5.37;;
3726;SDS011;1879;45.876;12.300;2023-05-07T10:34:21;5.53;;;5.03;;
3726;SDS011;1879;45.876;12.300;2023-05-07T10:36:50;5.73;;;5.23;;
3726;SDS011;1879;45.876;12.300;2023-05-07T10:39:18;7.13;;;5.60;;
3726;SDS011;1879;45.876;12.300;2023-05-07T10:41:46;5.90;;;5.40;;
3726;SDS011;1879;45.876;12.300;2023-05-07T10:44:24;7.90;;;5.03;;
3726;SDS011;1879;45.876;12.300;2023-05-07T10:47:10;5.23;;;4.63;;
3726;SDS011;1879;45.876;12.300;2023-05-07T10:52:37;5.90;;;5.40;;
3726;SDS011;1879;45.876;12.300;2023-05-07T10:55:20;6.53;;;5.57;;
3726;SDS011;1879;45.876;12.300;2023-05-07T10:57:50;5.50;;;5.00;;
3726;SDS011;1879;45.876;12.300;2023-05-07T11:03:05;5.77;;;5.20;;
3726;SDS011;1879;45.876;12.300;2023-05-07T11:05:33;5.40;;;4.77;;
3726;SDS011;1879;45.876;12.300;2023-05-07T11:08:00;6.83;;;5.50;;
3726;SDS011;1879;45.876;12.300;2023-05-07T11:10:47;5.77;;;5.07;;
3726;SDS011;1879;45.876;12.300;2023-05-07T11:13:15;6.53;;;5.17;;
3726;SDS011;1879;45.876;12.300;2023-05-07T11:15:44;5.63;;;5.03;;
3726;SDS011;1879;45.876;12.300;2023-05-07T11:18:14;6.77;;;5.70;;
3726;SDS011;1879;45.876;12.300;2023-05-07T11:20:49;6.20;;;5.60;;
3726;SDS011;1879;45.876;12.300;2023-05-07T11:26:45;6.90;;;6.30;;
3726;SDS011;1879;45.876;12.300;2023-05-07T11:29:14;6.23;;;5.63;;
3726;SDS011;1879;45.876;12.300;2023-05-07T11:31:43;5.67;;;5.03;;
3726;SDS011;1879;45.876;12.300;2023-05-07T11:34:12;7.33;;;5.00;;
3726;SDS011;1879;45.876;12.300;2023-05-07T11:36:43;7.00;;;6.43;;
3726;SDS011;1879;45.876;12.300;2023-05-07T11:39:22;7.20;;;6.67;;
3726;SDS011;1879;45.876;12.300;2023-05-07T11:41:51;7.00;;;6.50;;
3726;SDS011;1879;45.876;12.300;2023-05-07T11:44:18;7.47;;;6.83;;
3726;SDS011;1879;45.876;12.300;2023-05-07T11:46:45;6.67;;;6.00;;
3726;SDS011;1879;45.876;12.300;2023-05-07T11:49:13;7.57;;;6.17;;
3726;SDS011;1879;45.876;12.300;2023-05-07T11:51:40;7.70;;;5.90;;
3726;SDS011;1879;45.876;12.300;2023-05-07T11:54:08;6.40;;;5.90;;
3726;SDS011;1879;45.876;12.300;2023-05-07T11:56:38;6.53;;;5.93;;
3726;SDS011;1879;45.876;12.300;2023-05-07T11:59:05;8.40;;;7.70;;
3726;SDS011;1879;45.876;12.300;2023-05-07T12:01:34;8.17;;;7.57;;
3726;SDS011;1879;45.876;12.300;2023-05-07T12:04:02;7.63;;;7.03;;
3726;SDS011;1879;45.876;12.300;2023-05-07T12:06:35;7.73;;;7.00;;
3726;SDS011;1879;45.876;12.300;2023-05-07T12:09:03;7.30;;;6.70;;
3726;SDS011;1879;45.876;12.300;2023-05-07T12:11:32;8.80;;;8.00;;
3726;SDS011;1879;45.876;12.300;2023-05-07T12:14:00;7.70;;;7.10;;
3726;SDS011;1879;45.876;12.300;2023-05-07T12:16:27;7.77;;;7.07;;
3726;SDS011;1879;45.876;12.300;2023-05-07T12:18:55;8.60;;;7.90;;
3726;SDS011;1879;45.876;12.300;2023-05-07T12:21:24;9.47;;;8.60;;
3726;SDS011;1879;45.876;12.300;2023-05-07T12:23:52;7.40;;;6.83;;
3726;SDS011;1879;45.876;12.300;2023-05-07T12:26:19;7.47;;;6.87;;
3726;SDS011;1879;45.876;12.300;2023-05-07T12:28:47;8.70;;;7.30;;
3726;SDS011;1879;45.876;12.300;2023-05-07T12:31:14;8.30;;;7.60;;
3726;SDS011;1879;45.876;12.300;2023-05-07T12:33:41;8.03;;;7.40;;
3726;SDS011;1879;45.876;12.300;2023-05-07T12:36:09;7.77;;;7.03;;
3726;SDS011;1879;45.876;12.300;2023-05-07T12:38:39;8.63;;;7.07;;
3726;SDS011;1879;45.876;12.300;2023-05-07T12:41:08;7.10;;;6.43;;
3726;SDS011;1879;45.876;12.300;2023-05-07T12:43:39;7.70;;;7.00;;
3726;SDS011;1879;45.876;12.300;2023-05-07T12:46:06;8.23;;;7.10;;
3726;SDS011;1879;45.876;12.300;2023-05-07T12:48:35;7.13;;;6.50;;
3726;SDS011;1879;45.876;12.300;2023-05-07T12:51:03;7.27;;;6.67;;
3726;SDS011;1879;45.876;12.300;2023-05-07T12:53:32;7.00;;;6.37;;
3726;SDS011;1879;45.876;12.300;2023-05-07T12:56:01;7.50;;;6.73;;
3726;SDS011;1879;45.876;12.300;2023-05-07T12:58:30;11.33;;;6.70;;
3726;SDS011;1879;45.876;12.300;2023-05-07T13:01:00;6.90;;;6.40;;
3726;SDS011;1879;45.876;12.300;2023-05-07T13:03:30;6.87;;;6.27;;
3726;SDS011;1879;45.876;12.300;2023-05-07T13:05:58;6.90;;;6.40;;
3726;SDS011;1879;45.876;12.300;2023-05-07T13:08:27;7.57;;;6.87;;
3726;SDS011;1879;45.876;12.300;2023-05-07T13:10:56;7.73;;;7.10;;
3726;SDS011;1879;45.876;12.300;2023-05-07T13:13:23;8.10;;;7.40;;
3726;SDS011;1879;45.876;12.300;2023-05-07T13:15:52;8.10;;;7.50;;
3726;SDS011;1879;45.876;12.300;2023-05-07T13:18:19;8.33;;;7.63;;
3726;SDS011;1879;45.876;12.300;2023-05-07T13:20:46;8.00;;;7.40;;
3726;SDS011;1879;45.876;12.300;2023-05-07T13:23:12;8.10;;;7.40;;
3726;SDS011;1879;45.876;12.300;2023-05-07T13:25:39;8.40;;;7.70;;
3726;SDS011;1879;45.876;12.300;2023-05-07T13:28:06;8.77;;;7.97;;
3726;SDS011;1879;45.876;12.300;2023-05-07T13:30:33;8.23;;;7.53;;
3726;SDS011;1879;45.876;12.300;2023-05-07T13:33:02;8.30;;;7.60;;
3726;SDS011;1879;45.876;12.300;2023-05-07T13:35:29;8.23;;;7.60;;
3726;SDS011;1879;45.876;12.300;2023-05-07T13:37:56;8.07;;;7.37;;
3726;SDS011;1879;45.876;12.300;2023-05-07T13:40:23;7.20;;;6.60;;
3726;SDS011;1879;45.876;12.300;2023-05-07T13:42:50;8.27;;;7.57;;
3726;SDS011;1879;45.876;12.300;2023-05-07T13:45:17;7.93;;;6.80;;
3726;SDS011;1879;45.876;12.300;2023-05-07T13:47:45;7.20;;;6.53;;
3726;SDS011;1879;45.876;12.300;2023-05-07T13:50:13;7.10;;;6.40;;
3726;SDS011;1879;45.876;12.300;2023-05-07T13:52:41;7.07;;;6.47;;
3726;SDS011;1879;45.876;12.300;2023-05-07T13:55:10;6.60;;;6.00;;
3726;SDS011;1879;45.876;12.300;2023-05-07T13:57:37;3.73;;;3.43;;
3726;SDS011;1879;45.876;12.300;2023-05-07T14:00:05;6.93;;;6.43;;
3726;SDS011;1879;45.876;12.300;2023-05-07T14:02:33;7.27;;;6.57;;
3726;SDS011;1879;45.876;12.300;2023-05-07T14:05:00;7.27;;;6.77;;
3726;SDS011;1879;45.876;12.300;2023-05-07T14:07:28;6.90;;;6.30;;
3726;SDS011;1879;45.876;12.300;2023-05-07T14:09:56;5.90;;;5.40;;
3726;SDS011;1879;45.876;12.300;2023-05-07T14:12:23;6.20;;;5.70;;
3726;SDS011;1879;45.876;12.300;2023-05-07T14:14:50;7.20;;;6.70;;
3726;SDS011;1879;45.876;12.300;2023-05-07T14:17:17;8.63;;;7.83;;
3726;SDS011;1879;45.876;12.300;2023-05-07T14:19:45;7.70;;;7.03;;
3726;SDS011;1879;45.876;12.300;2023-05-07T14:22:13;7.23;;;6.63;;
3726;SDS011;1879;45.876;12.300;2023-05-07T14:24:41;9.03;;;7.57;;
3726;SDS011;1879;45.876;12.300;2023-05-07T14:27:08;8.60;;;8.00;;
3726;SDS011;1879;45.876;12.300;2023-05-07T14:29:35;7.57;;;6.97;;
3726;SDS011;1879;45.876;12.300;2023-05-07T14:32:02;7.60;;;6.90;;
3726;SDS011;1879;45.876;12.300;2023-05-07T14:34:30;6.50;;;5.90;;
3726;SDS011;1879;45.876;12.300;2023-05-07T14:36:57;7.97;;;7.30;;
3726;SDS011;1879;45.876;12.300;2023-05-07T14:39:25;6.63;;;6.13;;
3726;SDS011;1879;45.876;12.300;2023-05-07T14:41:54;7.30;;;6.70;;
3726;SDS011;1879;45.876;12.300;2023-05-07T14:44:21;6.77;;;6.00;;
3726;SDS011;1879;45.876;12.300;2023-05-07T14:46:48;7.50;;;6.93;;
3726;SDS011;1879;45.876;12.300;2023-05-07T14:49:15;10.17;;;9.23;;
3726;SDS011;1879;45.876;12.300;2023-05-07T14:51:43;8.07;;;7.37;;
3726;SDS011;1879;45.876;12.300;2023-05-07T14:54:10;8.33;;;7.53;;
3726;SDS011;1879;45.876;12.300;2023-05-07T14:56:37;8.13;;;6.23;;
3726;SDS011;1879;45.876;12.300;2023-05-07T14:59:06;6.47;;;5.97;;
3726;SDS011;1879;45.876;12.300;2023-05-07T15:01:34;7.30;;;6.70;;
3726;SDS011;1879;45.876;12.300;2023-05-07T15:04:01;7.53;;;6.90;;
3726;SDS011;1879;45.876;12.300;2023-05-07T15:06:29;9.47;;;8.60;;
3726;SDS011;1879;45.876;12.300;2023-05-07T15:08:56;8.07;;;7.47;;
3726;SDS011;1879;45.876;12.300;2023-05-07T15:11:23;8.10;;;7.50;;
3726;SDS011;1879;45.876;12.300;2023-05-07T15:13:50;7.50;;;6.80;;